Time;durP1;ratioP1;P1;durP2;ratioP2;P2;SDS_P1;SDS_P2;PMS_P1;PMS_P2;Temp;Humidity;BMP_temperature;BMP_pressure;BME280_temperature;BME280_humidity;BME280_pressure;Samples;Min_cycle;Max_cycle;Signal;HPM_P1;HPM_P2
2023/12/15 00:00:21;;;;;;;11.23;6.10;;;7.60;99.90;;;;;;5030980;28;20205;-55
2023/12/15 00:02:47;;;;;;;8.60;5.80;;;7.60;99.90;;;;;;5031183;28;20210;-57
2023/12/15 00:05:15;;;;;;;8.47;6.20;;;7.60;99.90;;;;;;5030772;28;20226;-55
2023/12/15 00:07:42;;;;;;;8.93;5.63;;;7.70;99.90;;;;;;5030864;28;20284;-54
2023/12/15 00:10:09;;;;;;;8.33;6.07;;;7.70;99.90;;;;;;5031093;28;20206;-56
2023/12/15 00:12:36;;;;;;;8.87;6.00;;;7.80;99.90;;;;;;5031237;28;20563;-54
2023/12/15 00:15:04;;;;;;;7.80;5.90;;;7.90;99.90;;;;;;5031801;28;20229;-55
2023/12/15 00:17:30;;;;;;;7.87;5.87;;;8.00;99.90;;;;;;5022608;28;20230;-55
2023/12/15 00:19:57;;;;;;;8.60;5.70;;;8.00;99.90;;;;;;5030642;28;20213;-56
2023/12/15 00:22:25;;;;;;;8.70;6.07;;;8.10;99.90;;;;;;5030975;28;20217;-55
2023/12/15 00:24:52;;;;;;;8.63;5.57;;;8.10;99.90;;;;;;5030858;28;20276;-55
2023/12/15 00:27:18;;;;;;;8.10;5.40;;;8.10;99.90;;;;;;5030792;28;20225;-55
2023/12/15 00:29:45;;;;;;;7.27;5.43;;;8.10;99.90;;;;;;5030631;28;20214;-55
2023/12/15 00:32:12;;;;;;;6.83;5.23;;;8.20;99.90;;;;;;5030549;28;20577;-54
2023/12/15 00:34:38;;;;;;;8.93;5.97;;;8.20;99.90;;;;;;5031079;28;20644;-54
2023/12/15 00:37:05;;;;;;;8.50;5.30;;;8.30;99.90;;;;;;5030768;28;20230;-57
2023/12/15 00:39:36;;;;;;;8.30;5.30;;;8.30;99.90;;;;;;5026316;28;20221;-55
2023/12/15 00:42:03;;;;;;;8.23;5.27;;;8.30;99.90;;;;;;5034428;28;20202;-54
2023/12/15 00:44:32;;;;;;;7.73;4.90;;;8.30;99.90;;;;;;5022158;28;20268;-53
2023/12/15 00:46:59;;;;;;;6.77;5.37;;;8.30;99.90;;;;;;5030579;28;20606;-54
2023/12/15 00:49:25;;;;;;;7.10;5.17;;;8.30;99.90;;;;;;5030288;28;20582;-55
2023/12/15 00:51:52;;;;;;;6.97;5.47;;;8.40;99.90;;;;;;5031326;28;20233;-54
2023/12/15 00:54:19;;;;;;;6.43;5.07;;;8.40;99.90;;;;;;5030618;28;20221;-54
2023/12/15 00:56:47;;;;;;;8.27;5.53;;;8.40;99.90;;;;;;5030505;28;20692;-54
2023/12/15 00:59:13;;;;;;;6.97;5.13;;;8.40;99.90;;;;;;5030105;28;20268;-54
2023/12/15 01:01:40;;;;;;;7.03;5.40;;;8.40;99.90;;;;;;5030352;28;20214;-54
2023/12/15 01:04:07;;;;;;;7.37;5.40;;;8.30;99.90;;;;;;5038492;28;20294;-52
2023/12/15 01:06:33;;;;;;;8.13;5.70;;;8.30;99.90;;;;;;5030314;28;20234;-54
2023/12/15 01:09:00;;;;;;;8.23;5.27;;;8.20;99.90;;;;;;5030374;28;20214;-55
2023/12/15 01:11:26;;;;;;;6.83;5.43;;;8.30;99.90;;;;;;5032491;28;20211;-55
2023/12/15 01:13:54;;;;;;;9.33;6.30;;;8.30;99.90;;;;;;5033998;28;20202;-55
2023/12/15 01:16:20;;;;;;;7.90;5.90;;;8.40;99.90;;;;;;5033724;28;20510;-56
2023/12/15 01:18:47;;;;;;;7.73;5.60;;;8.40;99.90;;;;;;5033885;28;20258;-55
2023/12/15 01:21:14;;;;;;;7.10;5.37;;;8.40;99.90;;;;;;5033984;28;20214;-55
2023/12/15 01:23:40;;;;;;;7.57;5.80;;;8.40;99.90;;;;;;5034041;28;20670;-54
2023/12/15 01:26:07;;;;;;;8.53;6.00;;;8.40;99.90;;;;;;5033588;28;20575;-54
2023/12/15 01:28:34;;;;;;;8.97;6.57;;;8.40;99.90;;;;;;5033709;28;20636;-54
2023/12/15 01:31:02;;;;;;;8.27;6.07;;;8.40;99.90;;;;;;5033769;28;20283;-55
2023/12/15 01:33:29;;;;;;;10.30;6.40;;;8.30;99.90;;;;;;5033688;28;20297;-54
2023/12/15 01:35:56;;;;;;;8.00;5.93;;;8.20;99.90;;;;;;5033656;28;20199;-55
2023/12/15 01:38:23;;;;;;;9.13;6.33;;;8.30;99.90;;;;;;5033541;28;20592;-53
2023/12/15 01:40:50;;;;;;;9.37;6.57;;;8.30;99.90;;;;;;5033499;28;20670;-55
2023/12/15 01:43:17;;;;;;;7.87;6.37;;;8.30;99.90;;;;;;5033163;28;20256;-54
2023/12/15 01:45:43;;;;;;;10.93;6.53;;;8.30;99.90;;;;;;5033611;28;20226;-54
2023/12/15 01:48:12;;;;;;;9.63;6.53;;;8.30;99.90;;;;;;5033069;28;20712;-56
2023/12/15 01:50:39;;;;;;;8.47;6.30;;;8.30;99.90;;;;;;5033367;28;20206;-56
2023/12/15 01:53:06;;;;;;;10.10;6.60;;;8.30;99.90;;;;;;5033292;28;20210;-54
2023/12/15 01:55:32;;;;;;;8.93;6.60;;;8.20;99.90;;;;;;5033686;28;20324;-54
2023/12/15 01:57:59;;;;;;;9.60;6.37;;;8.20;99.90;;;;;;5033284;28;20221;-55
2023/12/15 02:00:26;;;;;;;8.37;6.83;;;8.20;99.90;;;;;;5033085;28;20280;-54
2023/12/15 02:02:52;;;;;;;10.17;7.37;;;8.20;99.90;;;;;;5033354;28;20288;-54
2023/12/15 02:05:20;;;;;;;9.30;6.70;;;8.20;99.90;;;;;;5032927;28;20222;-55
2023/12/15 02:07:47;;;;;;;10.73;7.03;;;8.20;99.90;;;;;;5033025;28;20288;-55
2023/12/15 02:10:14;;;;;;;9.57;6.97;;;8.20;99.90;;;;;;5032589;28;20711;-55
2023/12/15 02:12:40;;;;;;;12.13;6.60;;;8.30;99.90;;;;;;5032960;28;20210;-55
2023/12/15 02:15:10;;;;;;;10.23;7.30;;;8.30;99.90;;;;;;5032664;28;20236;-55
2023/12/15 02:17:36;;;;;;;10.83;7.07;;;8.30;99.90;;;;;;5025049;28;20728;-55
2023/12/15 02:20:04;;;;;;;11.50;7.83;;;8.30;99.90;;;;;;5032764;28;20206;-55
2023/12/15 02:22:32;;;;;;;9.43;6.63;;;8.30;99.90;;;;;;5032241;28;20263;-54
2023/12/15 02:24:58;;;;;;;10.30;7.60;;;8.30;99.90;;;;;;5032278;28;20249;-54
2023/12/15 02:27:25;;;;;;;10.47;7.73;;;8.40;99.90;;;;;;5032296;28;20695;-54
2023/12/15 02:29:52;;;;;;;9.73;7.03;;;8.30;99.90;;;;;;5032617;28;20299;-55
2023/12/15 02:32:18;;;;;;;12.63;7.40;;;8.20;99.90;;;;;;5031911;28;20233;-54
2023/12/15 02:34:45;;;;;;;10.27;7.57;;;8.10;99.90;;;;;;5032682;28;20210;-55
2023/12/15 02:37:12;;;;;;;9.93;7.13;;;8.10;99.90;;;;;;5032227;28;20601;-54
2023/12/15 02:39:40;;;;;;;11.30;7.57;;;8.10;99.90;;;;;;5032131;28;20206;-55
2023/12/15 02:42:07;;;;;;;11.27;7.90;;;8.00;99.90;;;;;;5032445;28;20217;-55
2023/12/15 02:44:34;;;;;;;10.93;7.60;;;7.90;99.90;;;;;;5032441;28;20331;-56
2023/12/15 02:47:00;;;;;;;9.43;6.93;;;7.80;99.90;;;;;;5032272;28;20300;-55
2023/12/15 02:49:27;;;;;;;9.83;7.13;;;7.70;99.90;;;;;;5031847;28;20206;-55
2023/12/15 02:51:54;;;;;;;11.13;7.70;;;7.60;99.90;;;;;;5032134;28;20214;-55
2023/12/15 02:54:20;;;;;;;10.07;7.50;;;7.60;99.90;;;;;;5031871;28;20219;-55
2023/12/15 02:56:48;;;;;;;10.10;7.00;;;7.60;99.90;;;;;;5032022;28;20696;-56
2023/12/15 02:59:15;;;;;;;11.40;7.47;;;7.70;99.90;;;;;;5031637;28;20657;-55
2023/12/15 03:01:42;;;;;;;10.40;6.83;;;7.70;99.90;;;;;;5032109;28;20213;-55
2023/12/15 03:04:08;;;;;;;11.00;6.93;;;7.80;99.90;;;;;;5031836;28;20614;-55
2023/12/15 03:06:35;;;;;;;11.30;7.20;;;7.90;99.90;;;;;;5031509;28;20604;-54
2023/12/15 03:09:02;;;;;;;9.13;7.00;;;7.90;99.90;;;;;;5032052;28;20553;-55
2023/12/15 03:11:28;;;;;;;12.37;7.27;;;7.90;99.90;;;;;;5031723;28;20565;-55
2023/12/15 03:13:56;;;;;;;10.03;7.07;;;7.90;99.90;;;;;;5031757;28;20210;-55
2023/12/15 03:16:24;;;;;;;10.57;6.67;;;7.90;99.90;;;;;;5031548;28;20234;-54
2023/12/15 03:18:51;;;;;;;8.73;6.70;;;8.00;99.90;;;;;;5031637;28;20206;-56
2023/12/15 03:21:18;;;;;;;9.03;6.50;;;8.00;99.90;;;;;;5031314;28;20260;-55
2023/12/15 03:23:44;;;;;;;9.40;6.40;;;8.00;99.90;;;;;;5031695;28;20210;-55
2023/12/15 03:26:11;;;;;;;9.47;7.00;;;8.00;99.90;;;;;;5031313;28;20750;-54
2023/12/15 03:28:39;;;;;;;9.70;6.97;;;8.00;99.90;;;;;;5031375;28;20214;-54
2023/12/15 03:31:07;;;;;;;9.60;6.43;;;8.10;99.90;;;;;;5031627;28;20279;-54
2023/12/15 03:33:35;;;;;;;9.77;7.27;;;8.10;99.90;;;;;;5030706;28;20237;-55
2023/12/15 03:36:02;;;;;;;8.47;6.10;;;8.10;99.90;;;;;;5031159;28;20242;-55
2023/12/15 03:38:28;;;;;;;8.30;6.27;;;8.10;99.90;;;;;;5030921;28;20219;-55
2023/12/15 03:40:55;;;;;;;8.43;6.30;;;8.10;99.90;;;;;;5031551;28;20256;-56
2023/12/15 03:43:22;;;;;;;7.80;5.87;;;8.10;99.90;;;;;;5031069;28;20218;-55
2023/12/15 03:45:48;;;;;;;8.13;6.40;;;8.10;99.90;;;;;;5031050;28;20692;-55
2023/12/15 03:48:16;;;;;;;8.10;6.23;;;8.10;99.90;;;;;;5031095;28;20226;-56
2023/12/15 03:50:43;;;;;;;8.53;6.33;;;8.10;99.90;;;;;;5031159;28;20398;-56
2023/12/15 03:53:10;;;;;;;11.23;6.40;;;8.10;99.90;;;;;;5031151;28;20210;-55
2023/12/15 03:55:38;;;;;;;8.20;6.30;;;8.20;99.90;;;;;;5023404;28;20217;-54
2023/12/15 03:58:04;;;;;;;8.60;6.67;;;8.20;99.90;;;;;;5031400;28;20223;-54
2023/12/15 04:00:31;;;;;;;8.37;6.17;;;8.10;99.90;;;;;;5030714;28;20272;-55
2023/12/15 04:02:58;;;;;;;7.33;5.63;;;8.20;99.90;;;;;;5030741;28;20232;-54
2023/12/15 04:05:26;;;;;;;10.43;7.00;;;8.10;99.90;;;;;;5030723;28;20257;-55
2023/12/15 04:07:52;;;;;;;7.97;5.93;;;8.00;99.90;;;;;;5055267;22;20695;-62
2023/12/15 04:10:19;;;;;;;9.47;6.03;;;8.00;99.90;;;;;;5021547;28;20210;-63
2023/12/15 04:12:46;;;;;;;8.37;6.00;;;8.10;99.90;;;;;;5019456;28;20273;-63
2023/12/15 04:15:12;;;;;;;9.17;6.13;;;8.10;99.90;;;;;;5027465;28;20213;-63
2023/12/15 04:17:39;;;;;;;7.93;5.40;;;8.10;99.90;;;;;;5010923;28;20234;-63
2023/12/15 04:20:08;;;;;;;8.77;5.80;;;8.10;99.90;;;;;;5019406;28;20215;-63
2023/12/15 04:22:36;;;;;;;6.70;5.63;;;8.10;99.90;;;;;;5022131;28;20210;-64
2023/12/15 04:25:03;;;;;;;7.50;5.80;;;8.10;99.90;;;;;;5023695;28;20231;-63
2023/12/15 04:27:30;;;;;;;8.37;6.17;;;8.10;99.90;;;;;;5010855;28;20241;-62
2023/12/15 04:29:57;;;;;;;8.67;6.13;;;8.20;99.90;;;;;;5010765;28;20297;-62
2023/12/15 04:32:24;;;;;;;9.73;6.00;;;8.20;99.90;;;;;;5011076;28;20265;-62
2023/12/15 04:34:51;;;;;;;6.73;5.50;;;8.20;99.90;;;;;;5011291;28;20298;-63
2023/12/15 04:37:17;;;;;;;8.33;5.50;;;8.20;99.90;;;;;;5010767;28;20227;-62
2023/12/15 04:39:46;;;;;;;15.13;9.47;;;8.20;99.90;;;;;;5010934;28;20218;-63
2023/12/15 04:42:13;;;;;;;16.87;9.23;;;8.10;99.90;;;;;;5010900;28;20207;-62
2023/12/15 04:44:41;;;;;;;7.83;6.00;;;8.10;99.90;;;;;;5019777;28;20249;-62
2023/12/15 04:47:08;;;;;;;7.27;5.30;;;8.10;99.90;;;;;;5023000;28;20227;-62
2023/12/15 04:49:34;;;;;;;7.67;6.17;;;8.10;99.90;;;;;;5025492;28;20487;-62
2023/12/15 04:52:01;;;;;;;8.07;5.37;;;8.10;99.90;;;;;;5026199;28;20301;-62
2023/12/15 04:54:28;;;;;;;7.43;5.83;;;8.10;99.90;;;;;;5024173;28;20211;-62
2023/12/15 04:56:56;;;;;;;6.37;4.90;;;8.10;99.90;;;;;;5022633;28;20226;-62
2023/12/15 04:59:23;;;;;;;6.60;5.27;;;8.10;99.90;;;;;;5022320;28;20664;-62
2023/12/15 05:01:49;;;;;;;7.47;5.57;;;8.20;99.90;;;;;;5022652;28;20627;-62
2023/12/15 05:04:16;;;;;;;10.93;5.30;;;8.20;99.90;;;;;;5022886;28;20211;-61
2023/12/15 05:06:43;;;;;;;6.77;5.47;;;8.20;99.90;;;;;;5030125;28;20227;-63
2023/12/15 05:09:09;;;;;;;7.23;5.77;;;8.20;99.90;;;;;;5022406;28;20589;-64
2023/12/15 05:11:36;;;;;;;7.37;5.17;;;8.20;99.90;;;;;;5025080;28;20198;-62
2023/12/15 05:14:04;;;;;;;10.37;6.20;;;8.20;99.90;;;;;;5019067;28;20588;-61
2023/12/15 05:16:31;;;;;;;7.03;4.90;;;8.20;99.90;;;;;;5022306;28;20217;-63
2023/12/15 05:18:58;;;;;;;7.07;5.57;;;8.10;99.90;;;;;;5022170;28;20234;-63
2023/12/15 05:21:24;;;;;;;6.67;5.67;;;8.20;99.90;;;;;;5023683;28;20233;-63
2023/12/15 05:23:51;;;;;;;7.43;5.60;;;8.20;99.90;;;;;;5025721;28;20628;-63
2023/12/15 05:26:18;;;;;;;7.67;5.27;;;8.10;99.90;;;;;;5024743;28;20723;-61
2023/12/15 05:28:46;;;;;;;6.23;4.90;;;8.10;99.90;;;;;;5017829;28;20672;-61
2023/12/15 05:31:14;;;;;;;7.63;5.50;;;8.10;99.90;;;;;;5025536;28;20260;-63
2023/12/15 05:33:41;;;;;;;6.57;4.97;;;8.10;99.90;;;;;;5022002;28;20211;-63
2023/12/15 05:36:08;;;;;;;8.53;5.10;;;8.10;99.90;;;;;;5021166;28;20211;-63
2023/12/15 05:38:35;;;;;;;6.30;5.27;;;8.20;99.90;;;;;;5022010;28;20657;-63
2023/12/15 05:41:02;;;;;;;7.33;5.40;;;8.20;99.90;;;;;;5021881;28;20211;-61
2023/12/15 05:43:29;;;;;;;10.63;6.27;;;8.20;99.90;;;;;;5021707;28;20210;-62
2023/12/15 05:45:55;;;;;;;7.97;5.17;;;8.20;99.90;;;;;;5021815;28;20238;-62
2023/12/15 05:48:23;;;;;;;7.53;5.47;;;8.20;99.90;;;;;;5022522;28;20227;-62
2023/12/15 05:50:50;;;;;;;5.30;4.50;;;8.30;99.90;;;;;;5028482;28;20207;-62
2023/12/15 05:53:17;;;;;;;9.17;5.37;;;8.30;99.90;;;;;;5021429;28;20218;-62
2023/12/15 05:55:43;;;;;;;9.57;7.37;;;8.30;99.90;;;;;;5024783;28;20210;-62
2023/12/15 05:58:10;;;;;;;7.03;5.00;;;8.30;99.90;;;;;;5024466;28;20711;-62
2023/12/15 06:00:37;;;;;;;7.40;6.00;;;8.30;99.90;;;;;;5021774;28;20257;-62
2023/12/15 06:03:04;;;;;;;6.40;4.83;;;8.30;99.90;;;;;;5021285;28;20238;-62
2023/12/15 06:05:34;;;;;;;6.53;4.97;;;8.30;99.90;;;;;;5023198;28;20230;-63
2023/12/15 06:08:01;;;;;;;8.10;5.13;;;8.30;99.90;;;;;;5026475;28;20234;-62
2023/12/15 06:10:27;;;;;;;6.20;5.20;;;8.30;99.90;;;;;;5029425;28;20214;-63
2023/12/15 06:12:54;;;;;;;6.57;4.87;;;8.30;99.90;;;;;;5021254;28;20293;-62
2023/12/15 06:15:21;;;;;;;7.30;5.23;;;8.30;99.90;;;;;;5021087;28;20211;-62
2023/12/15 06:17:47;;;;;;;7.43;5.33;;;8.30;99.90;;;;;;5012709;28;20227;-62
2023/12/15 06:20:14;;;;;;;5.93;5.00;;;8.30;99.90;;;;;;5012577;28;20207;-62
2023/12/15 06:22:42;;;;;;;6.03;5.00;;;8.40;99.90;;;;;;5012449;28;20210;-62
2023/12/15 06:25:09;;;;;;;6.60;5.20;;;8.40;99.90;;;;;;5012553;28;20211;-62
2023/12/15 06:27:36;;;;;;;8.13;5.43;;;8.40;99.90;;;;;;5015392;28;20321;-63
2023/12/15 06:30:03;;;;;;;7.70;5.57;;;8.40;99.90;;;;;;5017863;28;20628;-62
2023/12/15 06:32:30;;;;;;;9.27;5.67;;;8.40;99.90;;;;;;5012309;28;20211;-63
2023/12/15 06:34:56;;;;;;;7.77;5.37;;;8.40;99.90;;;;;;5012402;28;20210;-62
2023/12/15 06:37:23;;;;;;;7.57;5.83;;;8.40;99.90;;;;;;5013300;28;20239;-63
2023/12/15 06:39:51;;;;;;;6.37;5.57;;;8.40;99.90;;;;;;5027722;28;20306;-63
2023/12/15 06:42:18;;;;;;;8.40;5.87;;;8.30;99.90;;;;;;5012110;28;20650;-62
2023/12/15 06:44:46;;;;;;;6.30;5.03;;;8.30;99.90;;;;;;5012060;28;20559;-62
2023/12/15 06:47:13;;;;;;;7.37;5.63;;;8.40;99.90;;;;;;5012776;28;20237;-63
2023/12/15 06:49:40;;;;;;;7.30;5.97;;;8.40;99.90;;;;;;5011794;28;20257;-62
2023/12/15 06:52:07;;;;;;;6.47;5.13;;;8.40;99.90;;;;;;5012511;28;20218;-63
2023/12/15 06:54:34;;;;;;;8.73;6.40;;;8.50;99.90;;;;;;5020240;28;20209;-63
2023/12/15 06:57:02;;;;;;;8.10;5.77;;;8.50;99.90;;;;;;5012362;28;20277;-63
2023/12/15 06:59:29;;;;;;;7.67;5.63;;;8.60;99.90;;;;;;5020112;28;20313;-63
2023/12/15 07:01:55;;;;;;;8.73;6.00;;;8.60;99.90;;;;;;5011971;28;20218;-63
2023/12/15 07:04:22;;;;;;;8.27;6.10;;;8.60;99.90;;;;;;5020383;28;20207;-62
2023/12/15 07:06:49;;;;;;;13.63;7.07;;;8.70;99.90;;;;;;5011758;28;20226;-62
2023/12/15 07:09:15;;;;;;;7.47;5.93;;;8.70;99.90;;;;;;5010953;28;20265;-61
2023/12/15 07:11:42;;;;;;;8.23;6.37;;;8.70;99.90;;;;;;5011988;28;20696;-63
2023/12/15 07:14:10;;;;;;;6.40;5.20;;;8.70;99.90;;;;;;5011786;28;20211;-60
2023/12/15 07:16:37;;;;;;;8.53;5.90;;;8.70;99.90;;;;;;5011559;28;20227;-62
2023/12/15 07:19:03;;;;;;;8.90;6.20;;;8.80;99.90;;;;;;5011553;28;20210;-62
2023/12/15 07:21:30;;;;;;;8.70;6.47;;;8.80;99.90;;;;;;5011796;28;20706;-62
2023/12/15 07:23:56;;;;;;;7.77;6.20;;;8.80;99.90;;;;;;5025031;28;20561;-62
2023/12/15 07:26:23;;;;;;;11.67;6.90;;;8.80;99.90;;;;;;5014132;28;20280;-62
2023/12/15 07:28:50;;;;;;;6.97;5.73;;;8.80;99.90;;;;;;5011530;28;20294;-62
2023/12/15 07:31:18;;;;;;;7.43;5.83;;;8.80;99.90;;;;;;5019801;28;20210;-62
2023/12/15 07:33:45;;;;;;;9.60;6.47;;;8.90;99.90;;;;;;5027870;28;20261;-62
2023/12/15 07:36:12;;;;;;;8.53;7.23;;;8.80;99.90;;;;;;5011820;28;20277;-62
2023/12/15 07:38:38;;;;;;;8.10;6.17;;;8.80;99.90;;;;;;5011096;28;20615;-61
2023/12/15 07:41:06;;;;;;;8.33;6.13;;;8.80;99.90;;;;;;5011459;28;20214;-62
2023/12/15 07:43:33;;;;;;;7.63;6.20;;;8.80;99.90;;;;;;5011278;28;20215;-61
2023/12/15 07:45:59;;;;;;;8.17;6.07;;;8.80;99.90;;;;;;5011233;28;20289;-61
2023/12/15 07:48:27;;;;;;;7.87;5.87;;;8.80;99.90;;;;;;5012606;28;20423;-61
2023/12/15 07:50:55;;;;;;;7.57;6.00;;;8.90;99.90;;;;;;5018155;28;20856;-62
2023/12/15 07:53:22;;;;;;;9.80;6.60;;;8.90;99.90;;;;;;5011526;28;20207;-62
2023/12/15 07:55:48;;;;;;;7.10;6.30;;;9.00;99.90;;;;;;5018743;28;20211;-61
2023/12/15 07:58:15;;;;;;;8.00;6.13;;;9.00;99.90;;;;;;5011096;28;20646;-62
2023/12/15 08:00:42;;;;;;;6.97;6.03;;;9.10;99.90;;;;;;5010843;28;20527;-62
2023/12/15 08:03:08;;;;;;;8.23;6.30;;;9.20;99.90;;;;;;5011319;28;20211;-62
2023/12/15 08:05:36;;;;;;;10.50;8.23;;;9.20;99.90;;;;;;5011272;28;20276;-62
2023/12/15 08:08:04;;;;;;;8.00;6.43;;;9.20;99.90;;;;;;5016977;28;20684;-61
2023/12/15 08:10:34;;;;;;;7.17;5.77;;;9.20;99.90;;;;;;5013113;28;20288;-62
2023/12/15 08:13:00;;;;;;;7.63;5.93;;;9.10;99.90;;;;;;5011046;28;20219;-62
2023/12/15 08:15:27;;;;;;;6.50;5.80;;;9.20;99.90;;;;;;5011188;28;20215;-61
2023/12/15 08:17:54;;;;;;;8.40;7.13;;;9.10;99.90;;;;;;5011248;28;20230;-62
2023/12/15 08:20:21;;;;;;;8.77;5.97;;;9.20;99.90;;;;;;5013139;28;20207;-62
2023/12/15 08:22:49;;;;;;;6.93;5.40;;;9.20;99.90;;;;;;5018820;28;20217;-61
2023/12/15 08:25:16;;;;;;;7.83;5.60;;;9.20;99.90;;;;;;5019153;28;20214;-62
2023/12/15 08:27:42;;;;;;;9.80;6.43;;;9.20;99.90;;;;;;5014598;28;20227;-62
2023/12/15 08:30:10;;;;;;;9.43;6.07;;;9.30;99.90;;;;;;5014884;28;20664;-61
2023/12/15 08:32:36;;;;;;;8.90;6.60;;;9.30;99.90;;;;;;5014837;28;20257;-61
2023/12/15 08:35:04;;;;;;;8.03;5.50;;;9.30;99.90;;;;;;5023265;28;20214;-61
2023/12/15 08:37:30;;;;;;;6.20;5.60;;;9.30;99.90;;;;;;5014767;28;20292;-61
2023/12/15 08:39:58;;;;;;;7.27;5.47;;;9.30;99.90;;;;;;5014610;28;20203;-61
2023/12/15 08:42:25;;;;;;;7.10;5.75;;;9.30;99.90;;;;;;5014354;28;20443;-63
2023/12/15 08:44:52;;;;;;;9.83;5.37;;;9.40;99.90;;;;;;5018900;28;20558;-62
2023/12/15 08:47:18;;;;;;;11.60;8.63;;;9.40;99.90;;;;;;5026690;28;20593;-62
2023/12/15 08:49:45;;;;;;;8.83;5.83;;;9.50;99.90;;;;;;5014215;28;20214;-61
2023/12/15 08:52:12;;;;;;;6.53;5.00;;;9.50;99.90;;;;;;5014500;28;20211;-61
2023/12/15 08:54:38;;;;;;;9.07;6.70;;;9.50;99.90;;;;;;5014270;28;20217;-60
2023/12/15 08:57:06;;;;;;;6.47;5.60;;;9.60;99.90;;;;;;5014820;28;20223;-62
2023/12/15 08:59:33;;;;;;;8.27;5.50;;;9.70;99.90;;;;;;5014437;28;20222;-59
2023/12/15 09:02:00;;;;;;;10.03;7.43;;;9.90;99.90;;;;;;5019570;28;20210;-61
2023/12/15 09:04:26;;;;;;;8.03;6.00;;;9.90;99.90;;;;;;5024920;28;20214;-63
2023/12/15 09:06:53;;;;;;;7.60;5.73;;;10.00;99.90;;;;;;5018423;28;20237;-61
2023/12/15 09:09:21;;;;;;;8.97;5.60;;;9.90;99.90;;;;;;5017743;28;20254;-62
2023/12/15 09:11:48;;;;;;;7.83;5.20;;;9.90;99.90;;;;;;5014235;28;20614;-59
2023/12/15 09:14:16;;;;;;;8.50;5.33;;;9.90;99.90;;;;;;5021773;28;20210;-58
2023/12/15 09:16:43;;;;;;;12.97;8.53;;;9.90;99.90;;;;;;5014873;28;20230;-58
2023/12/15 09:19:10;;;;;;;7.23;4.80;;;10.00;99.90;;;;;;5022515;28;20215;-58
2023/12/15 09:21:37;;;;;;;6.30;5.07;;;9.80;99.90;;;;;;5014120;28;20238;-59
2023/12/15 09:24:03;;;;;;;9.97;5.73;;;9.90;99.90;;;;;;5014312;28;20215;-59
2023/12/15 09:26:30;;;;;;;5.33;4.83;;;10.00;99.90;;;;;;5014212;28;20235;-58
2023/12/15 09:28:57;;;;;;;6.40;4.93;;;10.00;99.90;;;;;;5022598;28;20207;-58
2023/12/15 09:31:25;;;;;;;7.77;5.33;;;10.10;99.90;;;;;;5012975;28;20226;-58
2023/12/15 09:33:52;;;;;;;9.93;6.27;;;10.20;99.90;;;;;;5013943;28;20673;-59
2023/12/15 09:36:18;;;;;;;8.73;5.87;;;10.20;99.90;;;;;;5022469;28;20669;-58
2023/12/15 09:38:45;;;;;;;6.40;4.97;;;10.20;99.90;;;;;;5030389;28;20623;-58
2023/12/15 09:41:13;;;;;;;5.50;4.87;;;10.10;99.90;;;;;;5029311;28;20625;-58
2023/12/15 09:43:40;;;;;;;8.63;5.60;;;10.10;99.90;;;;;;5023307;28;20215;-58
2023/12/15 09:46:08;;;;;;;8.57;5.43;;;10.10;99.90;;;;;;5022392;28;20206;-59
2023/12/15 09:48:36;;;;;;;6.97;6.20;;;10.20;99.90;;;;;;5021751;28;20731;-59
2023/12/15 09:51:06;;;;;;;6.50;5.57;;;10.30;99.90;;;;;;5021839;28;20669;-59
2023/12/15 09:53:36;;;;;;;5.43;4.53;;;10.30;99.90;;;;;;5029808;28;20293;-59
2023/12/15 09:56:03;;;;;;;5.70;5.00;;;10.40;99.90;;;;;;5019239;28;20217;-59
2023/12/15 09:58:30;;;;;;;6.53;4.53;;;10.40;99.90;;;;;;5024342;28;20317;-59
2023/12/15 10:00:57;;;;;;;5.40;4.70;;;10.40;99.90;;;;;;5021797;28;20668;-60
2023/12/15 10:03:24;;;;;;;7.70;4.87;;;10.40;99.90;;;;;;5021233;28;20215;-59
2023/12/15 10:05:52;;;;;;;6.67;4.60;;;10.40;99.90;;;;;;5024964;28;20748;-59
2023/12/15 10:08:22;;;;;;;7.33;5.10;;;10.40;99.90;;;;;;5054868;22;20713;-53
2023/12/15 10:10:49;;;;;;;7.77;4.80;;;10.50;99.90;;;;;;5024616;28;20221;-54
2023/12/15 10:13:16;;;;;;;6.60;4.83;;;10.50;99.90;;;;;;5024497;28;20256;-57
2023/12/15 10:15:43;;;;;;;14.03;9.43;;;10.50;99.90;;;;;;5016045;28;20265;-58
2023/12/15 10:18:09;;;;;;;7.80;5.70;;;10.50;99.90;;;;;;5026169;28;20277;-57
2023/12/15 10:20:36;;;;;;;5.10;4.40;;;10.60;99.90;;;;;;5022519;28;20218;-57
2023/12/15 10:23:06;;;;;;;8.43;5.17;;;10.50;99.90;;;;;;5027939;28;20260;-54
2023/12/15 10:25:33;;;;;;;7.13;4.90;;;10.70;99.90;;;;;;5022694;28;20782;-57
2023/12/15 10:28:00;;;;;;;6.43;4.87;;;10.90;99.90;;;;;;5020814;28;20234;-57
2023/12/15 10:30:27;;;;;;;6.47;5.00;;;11.00;99.90;;;;;;5020140;28;20206;-58
2023/12/15 10:32:57;;;;;;;7.73;5.00;;;11.10;99.90;;;;;;5020004;28;20226;-58
2023/12/15 10:35:24;;;;;;;5.43;4.60;;;11.10;99.90;;;;;;5020384;28;20210;-56
2023/12/15 10:37:51;;;;;;;8.03;5.37;;;11.30;99.90;;;;;;5023688;28;20226;-56
2023/12/15 10:40:19;;;;;;;6.37;4.97;;;11.30;99.90;;;;;;5023971;28;20280;-57
2023/12/15 10:42:47;;;;;;;6.67;4.90;;;11.30;99.90;;;;;;5020585;28;20211;-56
2023/12/15 10:45:15;;;;;;;9.90;8.70;;;11.40;99.90;;;;;;5018868;28;20237;-56
2023/12/15 10:47:42;;;;;;;9.20;5.77;;;11.50;99.90;;;;;;5021312;28;20615;-56
2023/12/15 10:50:10;;;;;;;7.17;5.30;;;11.60;99.90;;;;;;5019974;28;20222;-57
2023/12/15 10:52:37;;;;;;;8.40;5.90;;;11.60;99.90;;;;;;5021650;28;20249;-56
2023/12/15 10:55:06;;;;;;;10.57;9.47;;;11.60;99.90;;;;;;5023788;28;20242;-57
2023/12/15 10:57:34;;;;;;;12.70;10.40;;;11.60;99.90;;;;;;5022688;28;20222;-57
2023/12/15 11:00:04;;;;;;;6.77;6.03;;;11.60;99.90;;;;;;5020269;28;20207;-57
2023/12/15 11:02:32;;;;;;;6.87;5.57;;;11.80;99.90;;;;;;5020603;28;20420;-59
2023/12/15 11:05:00;;;;;;;9.50;6.50;;;11.80;99.90;;;;;;5031487;28;20401;-56
2023/12/15 11:07:29;;;;;;;8.57;5.30;;;11.90;99.90;;;;;;5023264;28;20359;-54
2023/12/15 11:09:56;;;;;;;9.27;5.93;;;11.80;99.90;;;;;;5023290;28;20203;-54
2023/12/15 11:12:27;;;;;;;9.90;6.10;;;11.90;99.90;;;;;;5023564;28;20238;-54
2023/12/15 11:14:59;;;;;;;9.23;5.63;;;11.90;99.90;;;;;;5020198;28;20199;-54
2023/12/15 11:17:26;;;;;;;8.07;5.77;;;12.00;99.90;;;;;;5020231;28;20657;-54
2023/12/15 11:19:58;;;;;;;6.43;5.80;;;12.00;99.90;;;;;;5023398;28;20217;-54
2023/12/15 11:22:26;;;;;;;8.03;5.37;;;12.10;99.90;;;;;;5023416;28;20237;-55
2023/12/15 11:24:53;;;;;;;6.77;6.00;;;12.20;99.90;;;;;;5019874;28;20219;-55
2023/12/15 11:27:21;;;;;;;6.93;5.37;;;12.10;99.90;;;;;;5019977;28;20226;-55
2023/12/15 11:29:48;;;;;;;7.77;5.40;;;11.90;99.90;;;;;;5022310;28;20599;-55
2023/12/15 11:32:33;;;;;;;6.70;5.30;;;12.00;99.90;;;;;;5023253;28;20230;-55
2023/12/15 11:35:00;;;;;;;8.93;6.67;;;12.00;99.90;;;;;;5019703;28;20210;-56
2023/12/15 11:37:28;;;;;;;7.07;5.10;;;11.90;99.90;;;;;;5019959;28;20226;-54
2023/12/15 11:39:55;;;;;;;5.90;5.17;;;11.90;99.90;;;;;;5022864;28;20206;-54
2023/12/15 11:42:22;;;;;;;8.00;5.20;;;12.00;99.90;;;;;;5022821;28;20297;-54
2023/12/15 11:44:49;;;;;;;6.97;5.83;;;11.90;99.90;;;;;;5019781;28;20203;-54
2023/12/15 11:47:16;;;;;;;8.67;7.50;;;11.80;99.90;;;;;;5019287;28;20226;-54
2023/12/15 11:49:44;;;;;;;7.43;6.23;;;11.70;99.90;;;;;;5021228;28;20704;-55
2023/12/15 11:52:12;;;;;;;6.50;5.30;;;11.60;99.90;;;;;;5022567;28;20217;-55
2023/12/15 11:54:39;;;;;;;6.80;5.57;;;11.50;99.90;;;;;;5020606;28;20711;-55
2023/12/15 11:57:06;;;;;;;6.33;5.73;;;11.50;99.90;;;;;;5019204;28;20223;-55
2023/12/15 11:59:36;;;;;;;7.70;6.30;;;11.50;99.90;;;;;;5019798;28;20687;-55
2023/12/15 12:02:05;;;;;;;8.33;5.90;;;11.50;99.90;;;;;;5022467;28;20701;-54
2023/12/15 12:04:32;;;;;;;8.73;6.20;;;11.50;99.90;;;;;;5022105;28;20202;-54
2023/12/15 12:07:00;;;;;;;6.03;5.00;;;11.50;99.90;;;;;;5018922;28;20242;-54
2023/12/15 12:09:27;;;;;;;8.80;6.07;;;11.50;99.90;;;;;;5019123;28;20214;-55
2023/12/15 12:11:56;;;;;;;6.23;5.10;;;11.50;99.90;;;;;;5022457;28;20202;-55
2023/12/15 12:14:24;;;;;;;6.60;4.83;;;11.40;99.90;;;;;;5022656;28;20217;-54
2023/12/15 12:16:52;;;;;;;7.03;5.50;;;11.30;99.90;;;;;;5019027;28;20210;-54
2023/12/15 12:19:21;;;;;;;5.47;4.60;;;11.30;99.90;;;;;;5019124;28;20203;-54
2023/12/15 12:21:51;;;;;;;6.77;4.43;;;11.30;99.90;;;;;;5021713;28;20719;-54
2023/12/15 12:24:19;;;;;;;5.07;4.00;;;11.30;99.90;;;;;;5022701;28;20202;-54
2023/12/15 12:26:46;;;;;;;4.43;3.83;;;11.40;99.90;;;;;;5020369;28;20318;-54
2023/12/15 12:29:14;;;;;;;5.03;4.03;;;11.40;99.90;;;;;;5018740;28;20227;-55
2023/12/15 12:31:41;;;;;;;5.30;4.10;;;11.40;99.90;;;;;;5020687;28;20302;-54
2023/12/15 12:34:07;;;;;;;4.47;3.60;;;11.30;99.90;;;;;;5022565;28;20210;-55
2023/12/15 12:36:35;;;;;;;4.37;3.97;;;11.20;99.90;;;;;;5021274;28;20260;-54
2023/12/15 12:39:02;;;;;;;6.10;3.97;;;11.10;99.90;;;;;;5018464;28;20673;-55
2023/12/15 12:41:30;;;;;;;4.63;3.57;;;11.00;99.90;;;;;;5018790;28;20207;-54
2023/12/15 12:43:56;;;;;;;48.43;32.27;;;10.90;99.90;;;;;;5022289;28;20202;-55
2023/12/15 12:46:23;;;;;;;5.73;4.10;;;11.00;99.90;;;;;;5022422;28;20210;-57
2023/12/15 12:48:50;;;;;;;4.97;3.70;;;10.90;99.90;;;;;;5019168;28;20219;-55
2023/12/15 12:51:17;;;;;;;10.83;3.77;;;10.80;99.90;;;;;;5019212;28;20203;-55